ADDS TAF Board (Experimental) INFO

IDs: Format: Expanded Condensed

Updated at: 1135 UTC 31 Jan 2015

KCLT - Charlotte/Douglas In, NC, US

Issued at 1120 UTC 31 Jan 2015
Time1052Z31/12Z31/13Z31/14Z31/15Z31/16Z31/17Z31/18Z31/19Z31/20Z31/21Z31/22Z31/23Z01/00Z
TypeOBSPRVLPRVLPRVLPRVLPRVLPRVLPRVLPRVLPRVLPRVLPRVLPRVLPRVL
VIS10>6>6>6>6>6>6>6>6>6>6>6>6>6
CIG----------------------------
CoverCLRFEWFEWFEWFEWFEWFEWSCTSCTSCTSCTSCTSCTSCT
FltCat--VFRVFRVFRVFRVFRVFRVFRVFRVFRVFRVFRVFRVFR
WX----------------------------
WDirVRB260260260260260260230230230230230230230
WSpd03333335555555
WGst----------------------------
R05/23
XWndVRB2222220000000
HWndVRB-3-3-3-3-3-3-5-5-5-5-5-5-5
R18/36
XWndVRB-3-3-3-3-3-3-4-4-4-4-4-4-4
HWndVRB0000003333333
Raw TAF
KCLT 311120Z 3112/0112 26003KT P6SM FEW250
  FM311800 23005KT P6SM SCT150
  FM010300 18003KT P6SM BKN110


Raw METAR
KCLT 311052Z 00000KT 10SM CLR M05/M10 A3032 RMK AO2 SLP274 T10501100

TAF Board Legend

Hazard VFR MVFR IFR LIFR
Visibility (sm) >5 3≤X≤5 1≤X<3 <1
Ceiling (100 ft) >30 10≤X≤30 5≤X<10 <5
Wind Speed (kt) <10 10≤X<20 20≤X<30 ≥30
Wind Gust (kt) <15 15≤X<25 25≤X<35 ≥35
Weather No Wx Reported VCTS,-TS,-FZRA TS,FZRA +TS,+FZRA


Page loaded:  11:35 UTC  |   03:35 AM Pacific  |   04:35 AM Mountain  |   05:35 AM Central  |   06:35 AM Eastern

 

ADVISORIES

FORECASTS

FORECASTS

OBSERVATIONS

USER TOOLS

ABOUT US